Time;durP1;ratioP1;P1;durP2;ratioP2;P2;SDS_P1;SDS_P2;PMS_P1;PMS_P2;Temp;Humidity;BMP_temperature;BMP_pressure;BME280_temperature;BME280_humidity;BME280_pressure;Samples;Min_cycle;Max_cycle;Signal;HPM_P1;HPM_P2
2022/04/02 00:02:22;;;;;;;7.93;2.00;;;;;;;;;;5127090;27;20023;-76
2022/04/02 00:04:47;;;;;;;6.80;2.30;;;;;;;;;;5115866;27;20022;-77
2022/04/02 00:07:13;;;;;;;3.58;2.20;;;;;;;;;;5117319;27;20203;-77
2022/04/02 00:09:38;;;;;;;6.78;2.10;;;;;;;;;;5108610;27;20062;-77
2022/04/02 00:12:03;;;;;;;5.88;2.35;;;;;;;;;;5122996;27;20107;-78
2022/04/02 00:14:29;;;;;;;6.78;2.40;;;;;;;;;;5108468;27;20038;-77
2022/04/02 00:16:56;;;;;;;7.13;2.10;;;;;;;;;;5089095;27;20114;-77
2022/04/02 00:19:21;;;;;;;5.80;2.28;;;;;;;;;;5105625;27;20273;-78
2022/04/02 00:21:46;;;;;;;4.10;2.25;;;;;;;;;;5102893;27;20026;-77
2022/04/02 00:24:12;;;;;;;7.15;2.20;;;;;;;;;;5109639;27;20402;-76
2022/04/02 00:26:37;;;;;;;7.70;2.30;;;;;;;;;;5127660;27;20137;-77
2022/04/02 00:29:05;;;;;;;10.30;2.40;;;;;;;;;;5102523;27;20028;-76
2022/04/02 00:31:31;;;;;;;6.65;2.10;;;;;;;;;;5091255;27;20119;-76
2022/04/02 00:33:57;;;;;;;7.63;2.10;;;;;;;;;;5104376;27;20564;-77
2022/04/02 00:36:23;;;;;;;5.45;2.17;;;;;;;;;;5105517;27;20496;-76
2022/04/02 00:38:48;;;;;;;9.30;2.60;;;;;;;;;;5130503;27;20062;-75
2022/04/02 00:41:16;;;;;;;6.78;2.40;;;;;;;;;;5132968;27;20023;-76
2022/04/02 00:43:55;;;;;;;4.68;2.20;;;;;;;;;;5122119;27;20014;-77
2022/04/02 00:46:21;;;;;;;4.78;2.17;;;;;;;;;;5107506;27;20171;-77
2022/04/02 00:48:46;;;;;;;8.45;2.35;;;;;;;;;;5116407;27;20015;-77
2022/04/02 00:51:13;;;;;;;5.75;2.63;;;;;;;;;;5121421;27;20023;-77
2022/04/02 00:53:39;;;;;;;12.50;2.90;;;;;;;;;;5125904;27;20358;-76
2022/04/02 00:56:05;;;;;;;3.22;2.22;;;;;;;;;;5124404;27;20022;-77
2022/04/02 00:58:30;;;;;;;7.65;2.97;;;;;;;;;;5124248;27;20110;-77
2022/04/02 01:00:56;;;;;;;6.60;2.70;;;;;;;;;;5110208;27;20087;-77
2022/04/02 01:03:23;;;;;;;7.10;2.65;;;;;;;;;;5105583;28;20019;-77
2022/04/02 01:05:49;;;;;;;7.03;2.60;;;;;;;;;;5123145;27;20029;-77
2022/04/02 01:08:15;;;;;;;6.32;2.90;;;;;;;;;;5115704;27;20738;-77
2022/04/02 01:10:41;;;;;;;8.13;2.92;;;;;;;;;;5125227;27;20031;-77
2022/04/02 01:13:06;;;;;;;5.53;2.80;;;;;;;;;;5115021;27;20069;-77
2022/04/02 01:15:32;;;;;;;7.68;2.47;;;;;;;;;;5127176;27;20541;-77
2022/04/02 01:17:58;;;;;;;7.55;2.80;;;;;;;;;;5109772;27;20027;-76
2022/04/02 01:20:24;;;;;;;7.68;2.72;;;;;;;;;;5101452;28;20085;-76
2022/04/02 01:22:49;;;;;;;2.95;2.45;;;;;;;;;;5103275;28;20027;-78
2022/04/02 01:25:15;;;;;;;4.43;2.20;;;;;;;;;;5102842;28;20394;-76
2022/04/02 01:27:41;;;;;;;6.10;2.47;;;;;;;;;;5109349;27;20388;-77
2022/04/02 01:30:07;;;;;;;5.53;2.40;;;;;;;;;;5106024;27;20446;-77
2022/04/02 01:32:32;;;;;;;5.15;2.30;;;;;;;;;;5086220;28;20034;-77
2022/04/02 01:34:59;;;;;;;4.15;2.30;;;;;;;;;;5103789;27;20015;-76
2022/04/02 01:37:24;;;;;;;6.60;2.80;;;;;;;;;;5120006;27;20109;-77
2022/04/02 01:39:51;;;;;;;6.80;2.75;;;;;;;;;;5124879;27;20091;-78
2022/04/02 01:42:20;;;;;;;8.00;2.58;;;;;;;;;;5120133;27;20027;-77
2022/04/02 01:44:51;;;;;;;6.22;2.70;;;;;;;;;;5124498;27;20043;-77
2022/04/02 01:47:16;;;;;;;4.97;2.67;;;;;;;;;;5105683;27;20030;-77
2022/04/02 01:49:42;;;;;;;4.70;2.45;;;;;;;;;;5123039;27;20031;-77
2022/04/02 01:52:08;;;;;;;5.38;2.63;;;;;;;;;;5120850;27;20052;-77
2022/04/02 01:54:33;;;;;;;3.80;2.28;;;;;;;;;;5123172;27;20477;-77
2022/04/02 01:57:00;;;;;;;7.22;2.33;;;;;;;;;;5121442;27;20038;-76
2022/04/02 01:59:25;;;;;;;6.28;2.45;;;;;;;;;;5083252;28;20023;-77
2022/04/02 02:01:50;;;;;;;5.07;2.38;;;;;;;;;;5104304;28;20084;-77
2022/04/02 02:04:15;;;;;;;5.57;2.42;;;;;;;;;;5099538;28;20031;-77
2022/04/02 02:06:41;;;;;;;5.65;2.50;;;;;;;;;;5106016;27;20022;-77
2022/04/02 02:09:08;;;;;;;7.35;2.55;;;;;;;;;;5121590;27;20038;-77
2022/04/02 02:11:34;;;;;;;4.45;2.53;;;;;;;;;;5106441;27;20393;-77
2022/04/02 02:14:00;;;;;;;5.57;2.80;;;;;;;;;;5122999;27;20076;-77
2022/04/02 02:16:25;;;;;;;6.38;2.75;;;;;;;;;;5106909;27;20404;-77
2022/04/02 02:18:51;;;;;;;4.68;3.08;;;;;;;;;;5083004;28;20036;-76
2022/04/02 02:21:16;;;;;;;4.70;3.17;;;;;;;;;;5100496;28;20111;-76
2022/04/02 02:23:42;;;;;;;3.75;2.95;;;;;;;;;;5103206;28;20028;-76
2022/04/02 02:26:07;;;;;;;4.47;3.33;;;;;;;;;;5100158;28;20466;-77
2022/04/02 02:28:36;;;;;;;7.30;3.40;;;;;;;;;;5116119;27;20027;-77
2022/04/02 02:31:02;;;;;;;7.93;3.83;;;;;;;;;;5109774;27;20430;-77
2022/04/02 02:36:11;;;;;;;6.80;3.63;;;;;;;;;;5124645;27;20538;-77
2022/04/02 02:38:36;;;;;;;8.65;3.25;;;;;;;;;;5107435;27;20058;-76
2022/04/02 02:41:03;;;;;;;9.75;3.65;;;;;;;;;;5123270;27;20038;-77
2022/04/02 02:43:28;;;;;;;7.00;3.70;;;;;;;;;;5095688;28;20138;-76
2022/04/02 02:45:55;;;;;;;6.30;3.35;;;;;;;;;;5107539;27;20143;-76
2022/04/02 02:48:21;;;;;;;7.38;3.70;;;;;;;;;;5111986;27;20144;-76
2022/04/02 02:50:47;;;;;;;6.28;3.45;;;;;;;;;;5083099;28;20425;-75
2022/04/02 02:53:13;;;;;;;4.50;3.30;;;;;;;;;;5102235;28;20027;-76
2022/04/02 02:55:39;;;;;;;5.22;3.00;;;;;;;;;;5113169;27;20426;-77
2022/04/02 02:58:08;;;;;;;8.32;3.47;;;;;;;;;;5099739;28;20026;-77
2022/04/02 03:00:33;;;;;;;5.88;3.22;;;;;;;;;;5102560;28;20043;-77
2022/04/02 03:02:58;;;;;;;6.45;3.03;;;;;;;;;;5102496;28;20108;-77
2022/04/02 03:05:24;;;;;;;6.80;3.35;;;;;;;;;;5082940;28;20055;-78
2022/04/02 03:07:49;;;;;;;6.68;3.08;;;;;;;;;;5081573;28;20093;-77
2022/04/02 03:10:18;;;;;;;10.52;3.67;;;;;;;;;;5113304;27;20015;-76
2022/04/02 03:12:46;;;;;;;6.65;3.38;;;;;;;;;;5118552;27;20015;-77
2022/04/02 03:15:12;;;;;;;7.53;3.25;;;;;;;;;;5121087;27;20052;-78
2022/04/02 03:17:39;;;;;;;5.35;2.90;;;;;;;;;;5105510;27;20023;-77
2022/04/02 03:20:06;;;;;;;5.00;2.90;;;;;;;;;;5119895;27;20023;-77
2022/04/02 03:22:35;;;;;;;6.10;3.13;;;;;;;;;;5119133;27;20015;-77
2022/04/02 03:25:03;;;;;;;5.88;3.13;;;;;;;;;;5122608;27;20109;-77
2022/04/02 03:27:29;;;;;;;6.13;2.95;;;;;;;;;;5100063;28;20310;-77
2022/04/02 03:29:54;;;;;;;6.38;3.15;;;;;;;;;;5122596;27;20031;-77
2022/04/02 03:32:28;;;;;;;5.85;2.92;;;;;;;;;;5119203;28;20087;-78
2022/04/02 03:34:54;;;;;;;8.25;3.20;;;;;;;;;;5102993;28;20098;-77
2022/04/02 03:37:19;;;;;;;8.77;3.33;;;;;;;;;;5107498;28;20161;-77
2022/04/02 03:39:44;;;;;;;5.60;2.92;;;;;;;;;;5100657;28;20024;-77
2022/04/02 03:42:10;;;;;;;7.60;2.70;;;;;;;;;;5101858;28;20023;-76
2022/04/02 03:44:35;;;;;;;3.33;2.70;;;;;;;;;;5105861;27;20058;-77
2022/04/02 03:47:10;;;;;;;8.98;3.08;;;;;;;;;;5120052;28;20035;-77
2022/04/02 03:49:39;;;;;;;3.60;2.35;;;;;;;;;;5080701;28;20436;-78
2022/04/02 03:52:05;;;;;;;5.65;2.97;;;;;;;;;;5098920;28;20119;-78
2022/04/02 03:54:30;;;;;;;7.07;3.17;;;;;;;;;;5111670;28;20455;-77
2022/04/02 03:56:56;;;;;;;4.57;3.08;;;;;;;;;;5118714;27;20019;-76
2022/04/02 03:59:21;;;;;;;5.85;3.15;;;;;;;;;;5099021;28;20034;-78
2022/04/02 04:01:46;;;;;;;4.63;3.10;;;;;;;;;;5105579;28;20034;-77
2022/04/02 04:04:13;;;;;;;6.80;3.10;;;;;;;;;;5102376;28;20031;-77
2022/04/02 04:06:38;;;;;;;7.75;3.55;;;;;;;;;;5111746;27;20138;-78
2022/04/02 04:09:03;;;;;;;5.85;3.30;;;;;;;;;;5101392;28;20493;-77
2022/04/02 04:11:29;;;;;;;5.70;2.80;;;;;;;;;;5092314;28;20054;-78
2022/04/02 04:13:55;;;;;;;5.15;3.13;;;;;;;;;;5120560;28;20102;-77
2022/04/02 04:16:20;;;;;;;6.90;3.33;;;;;;;;;;5121139;27;20043;-77
2022/04/02 04:18:46;;;;;;;6.55;3.35;;;;;;;;;;5121806;27;20098;-77
2022/04/02 04:21:15;;;;;;;8.75;3.25;;;;;;;;;;5125126;27;20015;-76
2022/04/02 04:23:43;;;;;;;5.97;3.33;;;;;;;;;;5125748;27;20574;-78
2022/04/02 04:26:11;;;;;;;9.57;3.50;;;;;;;;;;5125449;27;20319;-78
2022/04/02 04:28:37;;;;;;;4.35;3.40;;;;;;;;;;5123439;27;20087;-78
2022/04/02 04:31:02;;;;;;;7.88;3.40;;;;;;;;;;5111448;27;20043;-78
2022/04/02 04:33:28;;;;;;;7.60;3.47;;;;;;;;;;5104552;28;20055;-78
2022/04/02 04:35:53;;;;;;;7.38;3.53;;;;;;;;;;5103426;27;20015;-76
2022/04/02 04:38:18;;;;;;;8.48;3.60;;;;;;;;;;5123943;27;20041;-76
2022/04/02 04:40:43;;;;;;;7.00;3.33;;;;;;;;;;5126733;27;20516;-77
2022/04/02 04:43:09;;;;;;;7.40;3.40;;;;;;;;;;5125758;27;20080;-78
2022/04/02 04:45:34;;;;;;;6.18;3.38;;;;;;;;;;5106915;27;20063;-79
2022/04/02 04:47:59;;;;;;;6.53;3.40;;;;;;;;;;5125921;27;20031;-77
2022/04/02 04:50:25;;;;;;;6.07;3.92;;;;;;;;;;5105694;27;20058;-77
2022/04/02 04:52:50;;;;;;;7.13;3.53;;;;;;;;;;5124536;27;20091;-77
2022/04/02 04:55:16;;;;;;;6.20;3.70;;;;;;;;;;5122510;27;20011;-77
2022/04/02 04:57:41;;;;;;;6.50;3.70;;;;;;;;;;5122629;27;20098;-78
2022/04/02 05:00:07;;;;;;;7.07;3.42;;;;;;;;;;5124659;27;20392;-78
2022/04/02 05:02:32;;;;;;;9.13;4.20;;;;;;;;;;5114476;27;20031;-77
2022/04/02 05:04:57;;;;;;;9.15;3.40;;;;;;;;;;5109589;27;20079;-77
2022/04/02 05:07:23;;;;;;;7.32;3.53;;;;;;;;;;5104691;27;20132;-76
2022/04/02 05:09:48;;;;;;;10.52;3.67;;;;;;;;;;5125702;27;20447;-77
2022/04/02 05:12:15;;;;;;;8.35;3.63;;;;;;;;;;5120637;27;20027;-78
2022/04/02 05:14:41;;;;;;;4.43;3.10;;;;;;;;;;5084666;28;20085;-77
2022/04/02 05:17:06;;;;;;;7.03;3.53;;;;;;;;;;5103523;28;20027;-77
2022/04/02 05:19:31;;;;;;;8.90;3.55;;;;;;;;;;5081927;28;20179;-77
2022/04/02 05:21:57;;;;;;;4.57;3.05;;;;;;;;;;5103211;28;20100;-77
2022/04/02 05:24:22;;;;;;;6.05;2.97;;;;;;;;;;5105016;27;20041;-76
2022/04/02 05:26:49;;;;;;;6.68;3.42;;;;;;;;;;5113927;27;20029;-76
2022/04/02 05:29:18;;;;;;;6.88;3.22;;;;;;;;;;5124756;27;20027;-77
2022/04/02 05:31:44;;;;;;;6.25;3.00;;;;;;;;;;5111604;27;20140;-77
2022/04/02 05:34:09;;;;;;;5.65;3.45;;;;;;;;;;5123664;27;20044;-77
2022/04/02 05:36:35;;;;;;;5.22;2.70;;;;;;;;;;5113833;27;20122;-77
2022/04/02 05:39:01;;;;;;;7.53;3.40;;;;;;;;;;5113486;27;20076;-77
2022/04/02 05:41:26;;;;;;;4.88;2.78;;;;;;;;;;5108710;27;20019;-77
2022/04/02 05:43:51;;;;;;;5.10;2.70;;;;;;;;;;5114410;27;20046;-78
2022/04/02 05:46:17;;;;;;;6.22;2.88;;;;;;;;;;5146144;27;20034;-77
2022/04/02 05:48:42;;;;;;;6.82;2.65;;;;;;;;;;5127236;27;20014;-76
2022/04/02 05:51:08;;;;;;;6.03;3.10;;;;;;;;;;5146916;27;20280;-77
2022/04/02 05:53:33;;;;;;;5.75;2.85;;;;;;;;;;5108992;27;20040;-75
2022/04/02 05:55:59;;;;;;;7.30;3.00;;;;;;;;;;5129582;27;20115;-76
2022/04/02 05:58:24;;;;;;;4.85;2.97;;;;;;;;;;5105844;27;20897;-79
2022/04/02 06:00:50;;;;;;;4.35;3.03;;;;;;;;;;5114209;27;20007;-78
2022/04/02 06:03:20;;;;;;;7.57;3.05;;;;;;;;;;5128078;27;20023;-77
2022/04/02 06:05:57;;;;;;;5.05;3.25;;;;;;;;;;5101183;27;20468;-79
2022/04/02 06:08:23;;;;;;;3.97;2.95;;;;;;;;;;5105143;27;20198;-76
2022/04/02 06:10:48;;;;;;;7.45;3.13;;;;;;;;;;5129695;27;20106;-78
2022/04/02 06:13:14;;;;;;;4.68;2.80;;;;;;;;;;5122658;27;20472;-78
2022/04/02 06:15:40;;;;;;;6.72;3.10;;;;;;;;;;5134556;27;20738;-78
2022/04/02 06:18:07;;;;;;;5.32;2.90;;;;;;;;;;5107341;27;20031;-77
2022/04/02 06:20:32;;;;;;;6.53;3.30;;;;;;;;;;5122398;27;20026;-77
2022/04/02 06:22:57;;;;;;;7.20;3.28;;;;;;;;;;5104466;27;20023;-77
2022/04/02 06:25:22;;;;;;;5.68;3.05;;;;;;;;;;5125739;27;20106;-76
2022/04/02 06:27:48;;;;;;;9.73;3.63;;;;;;;;;;5132117;27;20109;-77
2022/04/02 06:30:18;;;;;;;6.00;3.47;;;;;;;;;;5123269;27;20025;-78
2022/04/02 06:32:44;;;;;;;10.38;3.30;;;;;;;;;;5117881;27;20373;-76
2022/04/02 06:35:09;;;;;;;7.50;2.90;;;;;;;;;;5110501;27;20309;-77
2022/04/02 06:37:35;;;;;;;7.13;3.10;;;;;;;;;;5098762;27;20037;-77
2022/04/02 06:40:01;;;;;;;4.32;3.45;;;;;;;;;;5126810;27;20053;-77
2022/04/02 06:42:28;;;;;;;7.07;3.33;;;;;;;;;;5102256;27;20063;-77
2022/04/02 06:44:53;;;;;;;9.25;3.45;;;;;;;;;;5106213;27;20092;-76
2022/04/02 06:47:24;;;;;;;5.63;3.20;;;;;;;;;;5087282;27;20019;-76
2022/04/02 06:49:49;;;;;;;8.07;3.08;;;;;;;;;;5103899;27;20072;-76
2022/04/02 06:52:17;;;;;;;3.75;2.78;;;;;;;;;;5103855;27;20031;-76
2022/04/02 06:54:42;;;;;;;3.00;2.67;;;;;;;;;;5123932;27;20023;-75
2022/04/02 06:57:07;;;;;;;7.47;3.40;;;;;;;;;;5106972;27;20381;-76
2022/04/02 06:59:33;;;;;;;4.13;3.10;;;;;;;;;;5109110;27;20019;-77
2022/04/02 07:01:58;;;;;;;7.30;3.35;;;;;;;;;;5131470;27;20053;-76
2022/04/02 07:04:23;;;;;;;5.93;3.13;;;;;;;;;;5122528;27;20417;-77
2022/04/02 07:06:50;;;;;;;5.00;2.83;;;;;;;;;;5087547;27;20133;-77
2022/04/02 07:09:17;;;;;;;4.22;2.80;;;;;;;;;;5089038;27;20572;-76
2022/04/02 07:11:56;;;;;;;4.13;2.88;;;;;;;;;;5087758;27;20346;-76
2022/04/02 07:14:25;;;;;;;6.38;2.85;;;;;;;;;;5090322;27;20020;-76
2022/04/02 07:16:50;;;;;;;5.07;2.90;;;;;;;;;;5108843;27;20109;-76
2022/04/02 07:19:23;;;;;;;6.53;2.45;;;;;;;;;;5122311;27;20318;-76
2022/04/02 07:21:48;;;;;;;;;;;;;;;;;;5103312;27;20015;-75
2022/04/02 07:24:16;;;;;;;3.78;2.33;;;;;;;;;;5106534;27;20018;-76
2022/04/02 07:26:44;;;;;;;6.63;2.50;;;;;;;;;;5106190;27;20297;-78
2022/04/02 07:29:09;;;;;;;5.72;2.30;;;;;;;;;;5122668;27;20501;-77
2022/04/02 07:31:35;;;;;;;10.63;3.00;;;;;;;;;;5113847;27;20027;-77
2022/04/02 07:34:00;;;;;;;2.85;2.03;;;;;;;;;;5134761;27;20018;-76
2022/04/02 07:36:37;;;;;;;6.95;2.35;;;;;;;;;;5106116;27;20034;-75
2022/04/02 07:39:13;;;;;;;3.80;2.08;;;;;;;;;;5123858;27;20462;-76
2022/04/02 07:41:51;;;;;;;3.38;2.17;;;;;;;;;;5119700;27;20026;-76
2022/04/02 07:44:16;;;;;;;5.05;2.17;;;;;;;;;;5117220;27;20388;-76
2022/04/02 07:46:43;;;;;;;7.45;2.63;;;;;;;;;;5122338;27;20302;-75
2022/04/02 07:49:10;;;;;;;5.85;2.28;;;;;;;;;;5123740;27;20101;-77
2022/04/02 07:51:37;;;;;;;5.63;2.28;;;;;;;;;;5128152;27;20474;-75
2022/04/02 07:54:02;;;;;;;3.45;2.00;;;;;;;;;;5121013;27;20015;-77
2022/04/02 07:56:30;;;;;;;2.35;1.80;;;;;;;;;;5097383;27;20027;-77
2022/04/02 07:59:06;;;;;;;4.03;2.08;;;;;;;;;;5124389;27;20680;-76
2022/04/02 08:01:32;;;;;;;3.47;1.98;;;;;;;;;;5124432;27;20045;-76
2022/04/02 08:04:01;;;;;;;4.00;1.85;;;;;;;;;;5126664;27;20457;-75
2022/04/02 08:06:28;;;;;;;3.38;2.15;;;;;;;;;;5126845;27;20030;-75
2022/04/02 08:08:54;;;;;;;2.63;1.90;;;;;;;;;;5128719;27;20292;-76
2022/04/02 08:11:19;;;;;;;6.20;2.10;;;;;;;;;;5130227;27;20045;-77
2022/04/02 08:13:45;;;;;;;5.65;2.50;;;;;;;;;;5144734;27;20286;-76
2022/04/02 08:16:10;;;;;;;2.97;1.90;;;;;;;;;;5128724;27;20027;-77
2022/04/02 08:18:39;;;;;;;3.55;1.80;;;;;;;;;;5129098;27;20035;-76
2022/04/02 08:21:06;;;;;;;5.53;2.63;;;;;;;;;;5107409;27;20019;-76
2022/04/02 08:23:31;;;;;;;2.28;1.77;;;;;;;;;;5125982;27;20027;-75
2022/04/02 08:26:17;;;;;;;3.10;1.83;;;;;;;;;;5107832;27;20094;-76
2022/04/02 08:29:01;;;;;;;3.50;1.80;;;;;;;;;;5086251;27;20035;-77
2022/04/02 08:31:31;;;;;;;4.32;2.15;;;;;;;;;;5107547;27;20019;-77
2022/04/02 08:34:16;;;;;;;3.25;1.98;;;;;;;;;;5124445;27;20035;-76
2022/04/02 08:36:52;;;;;;;3.97;1.70;;;;;;;;;;5113855;27;20118;-77
2022/04/02 08:39:29;;;;;;;2.22;1.50;;;;;;;;;;5118826;27;20043;-76
2022/04/02 08:41:55;;;;;;;3.55;2.00;;;;;;;;;;5112642;27;20115;-76
2022/04/02 08:44:39;;;;;;;4.05;2.22;;;;;;;;;;5123388;27;20046;-75
2022/04/02 08:47:10;;;;;;;3.67;1.60;;;;;;;;;;5126570;27;20379;-78
2022/04/02 08:49:36;;;;;;;4.00;2.03;;;;;;;;;;5105340;27;20300;-78
2022/04/02 08:52:16;;;;;;;3.45;2.25;;;;;;;;;;5122712;27;20294;-78
2022/04/02 08:55:03;;;;;;;3.47;2.05;;;;;;;;;;5129326;27;20155;-79
2022/04/02 08:57:31;;;;;;;3.20;2.33;;;;;;;;;;5142993;27;20132;-77
2022/04/02 09:00:04;;;;;;;3.15;1.90;;;;;;;;;;5124745;27;20046;-77
2022/04/02 09:02:48;;;;;;;2.20;1.90;;;;;;;;;;5145501;27;20010;-77
2022/04/02 09:05:32;;;;;;;3.03;2.00;;;;;;;;;;5127183;27;20519;-78
2022/04/02 09:07:57;;;;;;;3.47;1.88;;;;;;;;;;5125042;27;20015;-77
2022/04/02 09:10:23;;;;;;;3.10;2.10;;;;;;;;;;5146930;27;20109;-78
2022/04/02 09:13:07;;;;;;;2.45;1.95;;;;;;;;;;5143058;27;20488;-78
2022/04/02 09:15:49;;;;;;;8.85;2.60;;;;;;;;;;5137296;27;20046;-76
2022/04/02 09:18:33;;;;;;;3.28;2.08;;;;;;;;;;5136338;27;20011;-77
2022/04/02 09:21:08;;;;;;;3.88;2.00;;;;;;;;;;5124824;27;20639;-77
2022/04/02 09:23:52;;;;;;;3.95;2.05;;;;;;;;;;5127836;27;20019;-77
2022/04/02 09:26:27;;;;;;;4.90;2.28;;;;;;;;;;5128442;27;20082;-79
2022/04/02 09:28:52;;;;;;;2.13;1.45;;;;;;;;;;5124909;27;20531;-77
2022/04/02 09:31:36;;;;;;;3.80;1.90;;;;;;;;;;5115651;27;20019;-77
2022/04/02 09:34:01;;;;;;;3.58;1.83;;;;;;;;;;5106730;27;20045;-78
2022/04/02 09:36:26;;;;;;;3.65;1.90;;;;;;;;;;5115647;27;20480;-78
2022/04/02 09:38:57;;;;;;;5.28;2.10;;;;;;;;;;5145221;27;20540;-76
2022/04/02 09:41:42;;;;;;;5.05;2.10;;;;;;;;;;5122279;27;20047;-77
2022/04/02 09:44:16;;;;;;;2.95;1.77;;;;;;;;;;5125868;27;20319;-77
2022/04/02 09:47:03;;;;;;;2.97;1.63;;;;;;;;;;5146163;27;20047;-78
2022/04/02 09:49:34;;;;;;;3.08;1.73;;;;;;;;;;5146800;27;20047;-79
2022/04/02 09:52:04;;;;;;;5.43;2.10;;;;;;;;;;5126330;27;20038;-78
2022/04/02 09:54:33;;;;;;;3.92;2.13;;;;;;;;;;5111548;27;20441;-79
2022/04/02 09:57:09;;;;;;;4.40;1.88;;;;;;;;;;5126216;27;20022;-78
2022/04/02 09:59:53;;;;;;;2.58;1.70;;;;;;;;;;5146287;27;20152;-75
2022/04/02 10:02:33;;;;;;;4.97;1.77;;;;;;;;;;5147089;27;20014;-79
2022/04/02 10:05:03;;;;;;;3.78;1.98;;;;;;;;;;5126878;27;20026;-78
2022/04/02 10:07:47;;;;;;;2.53;1.85;;;;;;;;;;5130087;27;20086;-77
2022/04/02 10:10:14;;;;;;;5.05;2.03;;;;;;;;;;5108048;27;20356;-78
2022/04/02 10:12:42;;;;;;;3.50;2.10;;;;;;;;;;5119100;27;20026;-77
2022/04/02 10:15:08;;;;;;;5.00;2.00;;;;;;;;;;5115874;27;20015;-77
2022/04/02 10:17:36;;;;;;;2.72;1.60;;;;;;;;;;5111325;27;20201;-77
2022/04/02 10:20:04;;;;;;;3.25;1.55;;;;;;;;;;5135410;27;20056;-78
2022/04/02 10:22:38;;;;;;;3.10;1.63;;;;;;;;;;5123642;27;20027;-78
2022/04/02 10:25:07;;;;;;;2.20;1.48;;;;;;;;;;5132246;27;20030;-77
2022/04/02 10:27:41;;;;;;;6.32;1.90;;;;;;;;;;5121207;27;20075;-77
2022/04/02 10:30:10;;;;;;;4.00;1.92;;;;;;;;;;5146032;27;20122;-77
2022/04/02 10:32:48;;;;;;;3.00;1.88;;;;;;;;;;5126132;27;20090;-78
2022/04/02 10:35:13;;;;;;;4.13;2.00;;;;;;;;;;5149116;27;20473;-78
2022/04/02 10:37:40;;;;;;;2.42;2.05;;;;;;;;;;5128959;27;20071;-78
2022/04/02 10:40:06;;;;;;;3.92;1.80;;;;;;;;;;5125910;27;20477;-77
2022/04/02 10:42:35;;;;;;;2.85;1.80;;;;;;;;;;5122121;27;20025;-77
2022/04/02 10:45:05;;;;;;;3.17;1.92;;;;;;;;;;5105140;27;20128;-77
2022/04/02 10:47:33;;;;;;;5.43;1.98;;;;;;;;;;5104432;27;20081;-76
2022/04/02 10:50:06;;;;;;;3.50;2.00;;;;;;;;;;5104880;27;20019;-76
2022/04/02 10:52:32;;;;;;;3.30;1.80;;;;;;;;;;5128378;27;20018;-77
2022/04/02 10:54:58;;;;;;;3.25;1.67;;;;;;;;;;5123128;27;20534;-77
2022/04/02 10:57:26;;;;;;;4.72;2.00;;;;;;;;;;5104644;27;20464;-79
2022/04/02 10:59:58;;;;;;;4.00;1.60;;;;;;;;;;5122704;27;20017;-77
2022/04/02 11:02:23;;;;;;;3.30;1.83;;;;;;;;;;5137945;27;20026;-78
2022/04/02 11:04:59;;;;;;;2.75;1.88;;;;;;;;;;5122732;27;20027;-78
2022/04/02 11:07:28;;;;;;;3.53;2.30;;;;;;;;;;5126873;27;20492;-77
2022/04/02 11:09:54;;;;;;;3.83;2.40;;;;;;;;;;5142964;27;20060;-77
2022/04/02 11:12:26;;;;;;;3.47;2.28;;;;;;;;;;5107633;27;20026;-78
2022/04/02 11:14:53;;;;;;;6.95;2.58;;;;;;;;;;5131670;27;20023;-74
2022/04/02 11:17:29;;;;;;;6.50;2.30;;;;;;;;;;5126138;27;20050;-77
2022/04/02 11:20:06;;;;;;;2.72;2.13;;;;;;;;;;5113433;27;20250;-77
2022/04/02 11:22:40;;;;;;;2.78;2.22;;;;;;;;;;5105168;27;20033;-76
2022/04/02 11:25:08;;;;;;;4.80;2.50;;;;;;;;;;5105766;27;20053;-77
2022/04/02 11:27:38;;;;;;;2.63;1.85;;;;;;;;;;5121858;27;20019;-77
2022/04/02 11:30:10;;;;;;;2.53;2.20;;;;;;;;;;5104595;27;20027;-76
2022/04/02 11:32:40;;;;;;;4.25;2.20;;;;;;;;;;5104096;27;20038;-77
2022/04/02 11:35:07;;;;;;;5.13;2.50;;;;;;;;;;5104746;27;20015;-77
2022/04/02 11:37:35;;;;;;;5.65;2.00;;;;;;;;;;5087993;27;20030;-75
2022/04/02 11:40:04;;;;;;;2.75;2.15;;;;;;;;;;5105461;27;20011;-78
2022/04/02 11:42:32;;;;;;;3.13;1.90;;;;;;;;;;5122818;27;20023;-76
2022/04/02 11:45:01;;;;;;;4.65;2.17;;;;;;;;;;5121926;27;20080;-78
2022/04/02 11:47:28;;;;;;;3.92;2.40;;;;;;;;;;5103699;27;20131;-75
2022/04/02 11:49:54;;;;;;;3.72;2.15;;;;;;;;;;5087599;27;20045;-77
2022/04/02 11:52:19;;;;;;;4.57;2.10;;;;;;;;;;5138387;27;20374;-78
2022/04/02 11:54:44;;;;;;;3.53;1.98;;;;;;;;;;5106193;27;20485;-76
2022/04/02 11:57:13;;;;;;;5.20;2.22;;;;;;;;;;5143049;27;20466;-76
2022/04/02 11:59:51;;;;;;;2.92;2.00;;;;;;;;;;5127081;27;20095;-79
2022/04/02 12:02:36;;;;;;;2.40;1.90;;;;;;;;;;5144098;27;20072;-77
2022/04/02 12:05:02;;;;;;;4.25;1.75;;;;;;;;;;5124342;27;20556;-79
2022/04/02 12:07:44;;;;;;;2.17;1.73;;;;;;;;;;5143822;27;20106;-78
2022/04/02 12:10:17;;;;;;;3.72;1.88;;;;;;;;;;5125342;27;20026;-79
2022/04/02 12:12:47;;;;;;;3.72;2.03;;;;;;;;;;5143553;27;20031;-77
2022/04/02 12:15:13;;;;;;;2.80;1.95;;;;;;;;;;5146002;27;20388;-77
2022/04/02 12:17:39;;;;;;;4.95;2.20;;;;;;;;;;5102637;27;20492;-78
2022/04/02 12:20:07;;;;;;;2.30;1.70;;;;;;;;;;5120807;27;20023;-78
2022/04/02 12:22:35;;;;;;;3.30;2.25;;;;;;;;;;5104651;27;20027;-77
2022/04/02 12:25:01;;;;;;;5.68;2.30;;;;;;;;;;5090045;27;20035;-78
2022/04/02 12:27:29;;;;;;;3.00;2.00;;;;;;;;;;5085163;27;20064;-78
2022/04/02 12:29:56;;;;;;;3.55;1.92;;;;;;;;;;5102688;27;20109;-77
2022/04/02 12:32:29;;;;;;;2.90;2.15;;;;;;;;;;5120898;27;20090;-77
2022/04/02 12:34:54;;;;;;;;;;;;;;;;;;5101699;27;20057;-77
2022/04/02 12:37:19;;;;;;;3.75;2.30;;;;;;;;;;5104281;27;20262;-78
2022/04/02 12:39:45;;;;;;;3.85;2.03;;;;;;;;;;5131719;27;20396;-77
2022/04/02 12:42:10;;;;;;;3.80;2.00;;;;;;;;;;5122934;27;20389;-77
2022/04/02 12:44:36;;;;;;;3.70;2.08;;;;;;;;;;5125472;27;20034;-78
2022/04/02 12:47:09;;;;;;;3.70;1.88;;;;;;;;;;5122827;27;20394;-78
2022/04/02 12:49:38;;;;;;;5.32;2.45;;;;;;;;;;5106372;27;20019;-75
2022/04/02 12:52:10;;;;;;;3.08;2.00;;;;;;;;;;5124131;27;20062;-77
2022/04/02 12:54:35;;;;;;;3.45;1.80;;;;;;;;;;5108172;27;20060;-76
2022/04/02 12:57:10;;;;;;;2.47;2.10;;;;;;;;;;5124036;27;20023;-74
2022/04/02 12:59:40;;;;;;;6.50;1.70;;;;;;;;;;5127281;27;20077;-74
2022/04/02 13:02:05;;;;;;;3.70;1.50;;;;;;;;;;5124662;27;20396;-78
2022/04/02 13:04:31;;;;;;;6.28;1.63;;;;;;;;;;5106971;27;20357;-79
2022/04/02 13:06:58;;;;;;;2.25;1.30;;;;;;;;;;5106211;27;20072;-78
2022/04/02 13:09:30;;;;;;;3.40;1.30;;;;;;;;;;5128970;27;20023;-76
2022/04/02 13:11:57;;;;;;;2.92;1.50;;;;;;;;;;5124667;27;20212;-76
2022/04/02 13:14:25;;;;;;;2.88;1.50;;;;;;;;;;5127755;27;20015;-77
2022/04/02 13:17:08;;;;;;;2.35;1.40;;;;;;;;;;5126043;27;20082;-77
2022/04/02 13:22:52;;;;;;;2.88;1.30;;;;;;;;;;5146214;27;20045;-75
2022/04/02 13:25:22;;;;;;;2.55;1.50;;;;;;;;;;5127948;27;20097;-75
2022/04/02 13:28:00;;;;;;;1.98;1.30;;;;;;;;;;5125819;27;20105;-75
2022/04/02 13:30:31;;;;;;;3.30;1.83;;;;;;;;;;5108173;27;20031;-77
2022/04/02 13:33:15;;;;;;;3.55;1.88;;;;;;;;;;5107052;27;20026;-77
2022/04/02 13:35:45;;;;;;;4.75;1.67;;;;;;;;;;5134748;27;20022;-76
2022/04/02 13:38:28;;;;;;;3.05;1.45;;;;;;;;;;5125196;27;20079;-75
2022/04/02 13:40:56;;;;;;;2.22;1.45;;;;;;;;;;5126721;27;20065;-77
2022/04/02 13:43:33;;;;;;;2.65;1.67;;;;;;;;;;5127292;27;20434;-78
2022/04/02 13:46:05;;;;;;;3.63;1.90;;;;;;;;;;5127020;27;20419;-75
2022/04/02 13:48:34;;;;;;;4.68;1.48;;;;;;;;;;5127750;27;20026;-76
2022/04/02 13:51:02;;;;;;;4.07;2.78;;;;;;;;;;5121071;27;20519;-76
2022/04/02 13:53:38;;;;;;;5.70;1.88;;;;;;;;;;5146441;27;20025;-75
2022/04/02 13:56:08;;;;;;;4.35;2.88;;;;;;;;;;5144359;27;20023;-76
2022/04/02 13:58:38;;;;;;;6.13;4.45;;;;;;;;;;5137125;27;20023;-77
2022/04/02 14:01:06;;;;;;;5.43;3.00;;;;;;;;;;5122384;27;20016;-77
2022/04/02 14:03:31;;;;;;;7.57;1.92;;;;;;;;;;5125712;27;20501;-76
2022/04/02 14:05:59;;;;;;;2.50;1.70;;;;;;;;;;5089907;27;20015;-77
2022/04/02 14:08:29;;;;;;;4.07;1.40;;;;;;;;;;5108716;27;20204;-77
2022/04/02 14:10:58;;;;;;;3.03;1.38;;;;;;;;;;5122155;27;20049;-76
2022/04/02 14:13:26;;;;;;;2.90;1.35;;;;;;;;;;5123102;27;20014;-75
2022/04/02 14:15:59;;;;;;;2.50;1.38;;;;;;;;;;5123148;27;20027;-70
2022/04/02 14:18:25;;;;;;;3.97;1.33;;;;;;;;;;5125140;27;20373;-70
2022/04/02 14:20:53;;;;;;;3.58;1.40;;;;;;;;;;5119901;27;20057;-70
2022/04/02 14:23:21;;;;;;;2.58;1.20;;;;;;;;;;5125671;27;20027;-70
2022/04/02 14:25:58;;;;;;;3.50;1.35;;;;;;;;;;5144200;27;20492;-70
2022/04/02 14:28:29;;;;;;;4.68;1.40;;;;;;;;;;5143042;27;20019;-69
2022/04/02 14:30:58;;;;;;;2.15;1.40;;;;;;;;;;5144672;27;20035;-70
2022/04/02 14:33:27;;;;;;;3.97;1.45;;;;;;;;;;5105749;27;20534;-69
2022/04/02 14:36:11;;;;;;;6.70;1.85;;;;;;;;;;5099604;27;20576;-70
2022/04/02 14:39:00;;;;;;;1.90;1.10;;;;;;;;;;5123535;27;20105;-69
2022/04/02 14:41:28;;;;;;;4.22;1.23;;;;;;;;;;5123625;27;20027;-69
2022/04/02 14:44:12;;;;;;;1.38;1.10;;;;;;;;;;5102292;27;20277;-70
2022/04/02 14:47:10;;;;;;;2.85;1.27;;;;;;;;;;5122243;27;20146;-71
2022/04/02 14:50:07;;;;;;;2.65;1.20;;;;;;;;;;5064446;27;20104;-70
2022/04/02 14:52:38;;;;;;;5.05;1.38;;;;;;;;;;5063076;27;20357;-69
2022/04/02 14:55:04;;;;;;;2.95;1.42;;;;;;;;;;5101080;27;20011;-70
2022/04/02 14:57:47;;;;;;;1.75;1.30;;;;;;;;;;5115428;27;20422;-70
2022/04/02 15:00:31;;;;;;;3.03;1.42;;;;;;;;;;5115832;27;20596;-72